createdAt,value
2019-05-13T00:02:16.747Z,103083.26
2019-05-13T00:04:47.535Z,103107.58
2019-05-13T00:07:18.002Z,103111.55
2019-05-13T00:09:47.793Z,103108.27
2019-05-13T00:12:17.850Z,103110.30
2019-05-13T00:14:47.788Z,103103.60
2019-05-13T00:17:17.585Z,103111.66
2019-05-13T00:19:47.784Z,103092.23
2019-05-13T00:22:17.665Z,103107.25
2019-05-13T00:24:47.451Z,103114.05
2019-05-13T00:27:17.761Z,103107.47
2019-05-13T00:29:47.891Z,103111.88
2019-05-13T00:32:17.760Z,103114.72
2019-05-13T00:34:47.613Z,103107.91
2019-05-13T00:37:17.586Z,103110.97
2019-05-13T00:39:47.512Z,103106.88
2019-05-13T00:42:17.845Z,103107.91
2019-05-13T00:44:47.853Z,103112.91
2019-05-13T00:47:18.156Z,103111.22
2019-05-13T00:49:48.000Z,103120.63
2019-05-13T00:52:17.934Z,103115.52
2019-05-13T00:54:47.799Z,103118.93
2019-05-13T00:57:17.717Z,103120.95
2019-05-13T00:59:47.631Z,103117.53
2019-05-13T01:02:17.442Z,103122.90
2019-05-13T01:04:47.326Z,103123.78
2019-05-13T01:07:25.969Z,103121.98
2019-05-13T01:09:49.423Z,103120.39
2019-05-13T01:12:19.540Z,103123.55
2019-05-13T01:14:49.847Z,103119.80
2019-05-13T01:17:19.825Z,103121.85
2019-05-13T01:19:49.880Z,103118.20
2019-05-13T01:22:19.669Z,103124.66
2019-05-13T01:24:49.446Z,103126.67
2019-05-13T01:27:19.464Z,103125.89
2019-05-13T01:29:49.469Z,103132.14
2019-05-13T01:32:19.342Z,103127.38
2019-05-13T01:34:49.188Z,103128.17
2019-05-13T01:37:19.239Z,103131.00
2019-05-13T01:39:49.468Z,103129.96
2019-05-13T01:42:19.623Z,103132.34
2019-05-13T01:44:49.765Z,103128.22
2019-05-13T01:47:19.774Z,103132.66
2019-05-13T01:49:49.637Z,103133.36
2019-05-13T01:52:19.404Z,103131.30
2019-05-13T01:54:49.322Z,103131.90
2019-05-13T01:57:23.819Z,103130.96
2019-05-13T01:59:53.973Z,103135.73
2019-05-13T02:02:27.065Z,103130.63
2019-05-13T02:05:03.959Z,103127.80
2019-05-13T02:07:38.012Z,103129.05
2019-05-13T02:10:14.365Z,103128.34
2019-05-13T02:12:44.706Z,103130.81
2019-05-13T02:15:15.316Z,103122.44
2019-05-13T02:17:47.677Z,103126.19
2019-05-13T02:20:17.833Z,103130.16
2019-05-13T02:22:47.771Z,103135.03
2019-05-13T02:25:17.555Z,103132.27
2019-05-13T02:27:48.397Z,103132.61
2019-05-13T02:30:18.503Z,103133.47
2019-05-13T02:32:48.596Z,103136.19
2019-05-13T02:35:18.654Z,103138.79
2019-05-13T02:37:48.803Z,103135.28
2019-05-13T02:40:22.393Z,103134.55
2019-05-13T02:42:52.344Z,103138.83
2019-05-13T02:45:22.883Z,103141.59
2019-05-13T02:47:52.837Z,103142.25
2019-05-13T02:50:22.916Z,103148.26
2019-05-13T02:52:53.329Z,103150.76
2019-05-13T02:55:23.292Z,103155.72
2019-05-13T02:57:53.793Z,103152.40
2019-05-13T03:00:24.746Z,103156.23
2019-05-13T03:02:54.645Z,103156.34
2019-05-13T03:05:24.483Z,103156.44
2019-05-13T03:07:54.457Z,103151.31
2019-05-13T03:10:25.506Z,103162.64
2019-05-13T03:12:55.360Z,103161.85
2019-05-13T03:15:27.108Z,103169.67
2019-05-13T03:18:06.887Z,103165.33
2019-05-13T03:20:37.194Z,103164.22
2019-05-13T03:23:07.493Z,103162.97
2019-05-13T03:25:37.421Z,103169.34
2019-05-13T03:28:07.684Z,103167.96
2019-05-13T03:30:37.506Z,103171.97
2019-05-13T03:33:11.100Z,103177.71
2019-05-13T03:35:44.706Z,103177.91
2019-05-13T03:38:12.777Z,103185.06
2019-05-13T03:40:43.068Z,103183.07
2019-05-13T03:43:14.761Z,103180.99
2019-05-13T03:45:46.037Z,103189.14
2019-05-13T03:48:17.408Z,103195.05
2019-05-13T03:50:47.381Z,103193.38
2019-05-13T03:53:17.596Z,103194.72
2019-05-13T03:55:49.379Z,103201.71
2019-05-13T03:58:23.653Z,103199.22
2019-05-13T04:00:51.920Z,103200.73
2019-05-13T04:03:22.942Z,103197.31
2019-05-13T04:05:53.808Z,103201.38
2019-05-13T04:08:23.800Z,103195.73
2019-05-13T04:10:53.757Z,103198.70
2019-05-13T04:13:23.634Z,103201.52
2019-05-13T04:15:57.365Z,103202.11
2019-05-13T04:18:27.371Z,103207.02
2019-05-13T04:20:57.501Z,103208.16
2019-05-13T04:23:32.130Z,103209.73
2019-05-13T04:26:03.016Z,103212.80
2019-05-13T04:28:33.283Z,103213.10
2019-05-13T04:31:03.996Z,103211.89
2019-05-13T04:33:33.995Z,103211.01
2019-05-13T04:36:03.996Z,103213.88
2019-05-13T04:38:34.221Z,103217.72
2019-05-13T04:41:04.395Z,103211.02
2019-05-13T04:43:34.893Z,103211.84
2019-05-13T04:46:05.047Z,103208.81
2019-05-13T04:48:39.285Z,103212.36
2019-05-13T04:51:06.573Z,103223.05
2019-05-13T04:53:37.315Z,103218.90
2019-05-13T04:56:09.130Z,103215.54
2019-05-13T04:58:42.695Z,103226.71
2019-05-13T05:01:40.372Z,103219.83
2019-05-13T05:04:28.735Z,103225.57
2019-05-13T05:07:32.780Z,103218.38
2019-05-13T05:10:38.307Z,103218.80
2019-05-13T05:13:12.963Z,103215.50
2019-05-13T05:16:14.156Z,103206.85
2019-05-13T05:19:14.424Z,103206.75
2019-05-13T05:22:02.701Z,103203.69
2019-05-13T05:24:58.392Z,103203.27
2019-05-13T05:28:34.148Z,103205.05
2019-05-13T05:31:26.984Z,103210.23
2019-05-13T05:34:41.982Z,103211.50
2019-05-13T05:37:42.789Z,103208.31
2019-05-13T05:40:27.084Z,103213.12
2019-05-13T05:42:46.976Z,103225.38
2019-05-13T05:45:18.628Z,103221.14
2019-05-13T05:47:51.767Z,103218.86
2019-05-13T05:50:23.028Z,103228.10
2019-05-13T05:52:56.017Z,103219.22
2019-05-13T05:55:29.129Z,103214.64
2019-05-13T05:58:02.931Z,103217.85
2019-05-13T06:00:33.310Z,103219.52
2019-05-13T06:03:04.788Z,103209.92
2019-05-13T06:05:36.327Z,103216.61
2019-05-13T06:08:06.647Z,103220.15
2019-05-13T06:10:49.191Z,103218.29
2019-05-13T06:13:08.694Z,103221.61
2019-05-13T06:15:38.853Z,103222.20
2019-05-13T06:18:08.773Z,103223.95
2019-05-13T06:20:38.937Z,103226.09
2019-05-13T06:23:11.343Z,103221.56
2019-05-13T06:25:42.778Z,103222.33
2019-05-13T06:28:13.080Z,103225.48
2019-05-13T06:30:43.067Z,103226.34
2019-05-13T06:33:13.143Z,103228.09
2019-05-13T06:35:44.866Z,103229.80
2019-05-13T06:38:14.907Z,103231.60
2019-05-13T06:40:58.111Z,103231.87
2019-05-13T06:43:16.495Z,103229.74
2019-05-13T06:45:46.626Z,103233.85
2019-05-13T06:48:16.551Z,103234.15
2019-05-13T06:50:46.384Z,103239.81
2019-05-13T06:53:17.809Z,103238.63
2019-05-13T06:55:47.745Z,103241.58
2019-05-13T06:58:17.560Z,103240.96
2019-05-13T07:00:47.461Z,103244.70
2019-05-13T07:03:17.341Z,103240.05
2019-05-13T07:05:47.143Z,103240.05
2019-05-13T07:08:16.993Z,103239.32
2019-05-13T07:10:47.246Z,103238.88
2019-05-13T07:13:17.591Z,103240.47
2019-05-13T07:15:47.878Z,103238.03
2019-05-13T07:18:17.764Z,103239.87
2019-05-13T07:20:47.588Z,103236.03
2019-05-13T07:23:17.441Z,103234.45
2019-05-13T07:25:47.859Z,103234.30
2019-05-13T07:28:17.678Z,103234.76
2019-05-13T07:30:48.209Z,103232.72
2019-05-13T07:33:18.407Z,103237.76
2019-05-13T07:35:48.349Z,103236.52
2019-05-13T07:38:18.766Z,103235.78
2019-05-13T07:40:52.568Z,103236.68
2019-05-13T07:43:23.524Z,103240.33
2019-05-13T07:45:53.639Z,103245.05
2019-05-13T07:48:27.562Z,103240.78
2019-05-13T07:51:00.157Z,103238.81
2019-05-13T07:53:27.224Z,103233.00
2019-05-13T07:55:57.186Z,103232.74
2019-05-13T07:58:27.064Z,103236.63
2019-05-13T08:00:58.129Z,103238.09
2019-05-13T08:03:31.539Z,103230.39
2019-05-13T08:06:02.010Z,103228.02
2019-05-13T08:08:32.484Z,103237.66
2019-05-13T08:11:02.571Z,103225.88
2019-05-13T08:13:32.454Z,103213.97
2019-05-13T08:16:02.632Z,103233.89
2019-05-13T08:18:33.080Z,103226.33
2019-05-13T08:21:03.031Z,103227.78
2019-05-13T08:23:32.932Z,103228.36
2019-05-13T08:26:02.948Z,103228.45
2019-05-13T08:28:32.873Z,103233.05
2019-05-13T08:31:02.720Z,103229.25
2019-05-13T08:33:32.588Z,103224.27
2019-05-13T08:36:02.555Z,103220.56
2019-05-13T08:38:32.350Z,103224.54
2019-05-13T08:41:02.314Z,103223.47
2019-05-13T08:43:32.841Z,103225.65
2019-05-13T08:46:03.149Z,103218.69
2019-05-13T08:48:33.100Z,103223.20
2019-05-13T08:51:03.500Z,103219.95
2019-05-13T08:53:33.463Z,103219.57
2019-05-13T08:56:03.446Z,103222.36
2019-05-13T08:58:33.635Z,103221.81
2019-05-13T09:01:03.511Z,103218.94
2019-05-13T09:03:33.696Z,103215.16
2019-05-13T09:06:03.834Z,103216.81
2019-05-13T09:08:34.320Z,103215.07
2019-05-13T09:11:04.337Z,103218.83
2019-05-13T09:13:34.538Z,103214.94
2019-05-13T09:16:04.916Z,103206.44
2019-05-13T09:18:36.058Z,103216.89
2019-05-13T09:21:05.982Z,103207.13
2019-05-13T09:23:35.878Z,103209.55
2019-05-13T09:26:06.327Z,103208.14
2019-05-13T09:28:36.426Z,103209.56
2019-05-13T09:31:06.347Z,103207.77
2019-05-13T09:33:36.544Z,103205.22
2019-05-13T09:36:06.408Z,103207.95
2019-05-13T09:38:37.800Z,103210.23
2019-05-13T09:41:07.700Z,103211.52
2019-05-13T09:43:38.501Z,103196.97
2019-05-13T09:46:08.366Z,103192.66
2019-05-13T09:48:38.372Z,103200.72
2019-05-13T09:51:08.261Z,103188.50
2019-05-13T09:53:38.681Z,103184.38
2019-05-13T09:56:08.566Z,103187.61
2019-05-13T09:58:38.546Z,103188.54
2019-05-13T10:01:08.719Z,103186.42
2019-05-13T10:03:53.180Z,103187.92
2019-05-13T10:06:12.615Z,103179.59
2019-05-13T10:08:42.133Z,103180.53
2019-05-13T10:11:12.488Z,103181.50
2019-05-13T10:13:42.792Z,103171.44
2019-05-13T10:16:12.731Z,103180.48
2019-05-13T10:18:42.853Z,103151.63
2019-05-13T10:21:12.871Z,103179.95
2019-05-13T10:23:42.702Z,103178.69
2019-05-13T10:26:14.501Z,103179.95
2019-05-13T10:28:45.545Z,103183.95
2019-05-13T10:31:15.557Z,103179.97
2019-05-13T10:33:45.803Z,103169.08
2019-05-13T10:36:16.305Z,103177.03
2019-05-13T10:38:46.556Z,103174.70
2019-05-13T10:41:17.800Z,103168.36
2019-05-13T10:43:48.189Z,103160.92
2019-05-13T10:46:18.548Z,103172.91
2019-05-13T10:48:48.538Z,103176.88
2019-05-13T10:51:18.313Z,103165.45
2019-05-13T10:53:48.174Z,103160.38
2019-05-13T10:56:17.927Z,103155.68
2019-05-13T10:58:47.843Z,103152.77
2019-05-13T11:01:17.719Z,103140.78
2019-05-13T11:03:47.832Z,103144.05
2019-05-13T11:06:17.941Z,103130.62
2019-05-13T11:08:48.080Z,103140.59
2019-05-13T11:11:18.426Z,103141.66
2019-05-13T11:13:56.333Z,103133.12
2019-05-13T11:16:22.587Z,103132.75
2019-05-13T11:18:52.202Z,103135.64
2019-05-13T11:21:22.422Z,103128.37
2019-05-13T11:23:52.371Z,103116.78
2019-05-13T11:26:22.591Z,103114.77
2019-05-13T11:28:52.532Z,103113.10
2019-05-13T11:31:22.689Z,103123.25
2019-05-13T11:33:52.625Z,103115.92
2019-05-13T11:36:23.715Z,103110.84
2019-05-13T11:38:54.322Z,103109.60
2019-05-13T11:41:24.312Z,103115.53
2019-05-13T11:44:12.175Z,103109.33
2019-05-13T11:46:25.638Z,103106.52
2019-05-13T11:48:56.788Z,103108.19
2019-05-13T11:51:27.321Z,103106.49
2019-05-13T11:53:57.177Z,103100.66
2019-05-13T11:56:27.076Z,103099.89
2019-05-13T11:58:56.901Z,103096.38
2019-05-13T12:01:26.729Z,103102.47
2019-05-13T12:03:56.563Z,103096.31
2019-05-13T12:06:26.992Z,103090.41
2019-05-13T12:08:56.863Z,103094.50
2019-05-13T12:11:27.658Z,103089.36
2019-05-13T12:13:58.066Z,103091.69
2019-05-13T12:16:27.893Z,103086.55
2019-05-13T12:18:57.751Z,103077.30
2019-05-13T12:21:27.692Z,103087.23
2019-05-13T12:23:57.821Z,103078.63
2019-05-13T12:26:27.842Z,103074.59
2019-05-13T12:28:57.699Z,103076.41
2019-05-13T12:31:28.253Z,103074.19
2019-05-13T12:33:58.075Z,103073.27
2019-05-13T12:36:27.950Z,103067.95
2019-05-13T12:38:58.389Z,103060.59
2019-05-13T12:41:32.766Z,103034.75
2019-05-13T12:44:01.785Z,103057.75
2019-05-13T12:46:32.220Z,103057.00
2019-05-13T12:49:04.075Z,103046.02
2019-05-13T12:51:34.044Z,103051.09
2019-05-13T12:54:04.066Z,103051.81
2019-05-13T12:56:34.399Z,103048.25
2019-05-13T12:59:04.394Z,103048.01
2019-05-13T13:01:34.410Z,103044.78
2019-05-13T13:04:04.786Z,103035.85
2019-05-13T13:06:40.610Z,103040.79
2019-05-13T13:09:07.668Z,103036.63
2019-05-13T13:11:37.469Z,103039.22
2019-05-13T13:14:10.360Z,103034.94
2019-05-13T13:16:42.156Z,103027.87
2019-05-13T13:19:14.668Z,103016.11
2019-05-13T13:21:42.421Z,103015.98
2019-05-13T13:24:12.660Z,103000.18
2019-05-13T13:26:43.333Z,103013.00
2019-05-13T13:29:13.567Z,103008.38
2019-05-13T13:31:44.520Z,103016.87
2019-05-13T13:34:18.557Z,103015.47
2019-05-13T13:36:46.678Z,103015.55
2019-05-13T13:39:16.709Z,103003.48
2019-05-13T13:41:46.927Z,103004.48
2019-05-13T13:44:17.337Z,103002.61
2019-05-13T13:46:49.242Z,103000.59
2019-05-13T13:49:22.730Z,102997.89
2019-05-13T13:51:50.196Z,102996.35
2019-05-13T13:54:22.671Z,103002.55
2019-05-13T13:56:55.883Z,103007.31
2019-05-13T13:59:25.176Z,103001.95
2019-05-13T14:01:55.493Z,103000.98
2019-05-13T14:04:25.630Z,102994.62
2019-05-13T14:09:27.303Z,102993.78
2019-05-13T14:11:57.195Z,102987.52
2019-05-13T14:14:27.187Z,102992.71
2019-05-13T14:16:58.298Z,102989.90
2019-05-13T14:19:28.451Z,102992.91
2019-05-13T14:21:58.925Z,102995.45
2019-05-13T14:24:28.742Z,102981.16
2019-05-13T14:26:59.216Z,102989.97
2019-05-13T14:29:38.454Z,102977.58
2019-05-13T14:32:01.414Z,102984.32
2019-05-13T14:34:33.161Z,102980.22
2019-05-13T14:37:02.979Z,102981.23
2019-05-13T14:39:35.852Z,102970.77
2019-05-13T14:42:04.487Z,102968.86
2019-05-13T14:44:34.390Z,102972.59
2019-05-13T14:47:04.594Z,102975.85
2019-05-13T14:49:34.502Z,102972.70
2019-05-13T14:52:04.533Z,102958.80
2019-05-13T14:54:34.549Z,102961.17
2019-05-13T14:57:04.560Z,102961.42
2019-05-13T14:59:34.394Z,102966.34
2019-05-13T15:02:05.616Z,102952.73
2019-05-13T15:04:35.502Z,102962.81
2019-05-13T15:07:05.398Z,102961.30
2019-05-13T15:09:35.233Z,102963.52
2019-05-13T15:12:05.249Z,102952.33
2019-05-13T15:14:35.338Z,102959.44
2019-05-13T15:17:07.591Z,102955.65
2019-05-13T15:19:37.007Z,102951.89
2019-05-13T15:22:07.317Z,102953.30
2019-05-13T15:24:37.089Z,102959.96
2019-05-13T15:27:07.010Z,102956.77
2019-05-13T15:29:36.847Z,102951.61
2019-05-13T15:32:07.405Z,102951.25
2019-05-13T15:34:37.963Z,102950.22
2019-05-13T15:37:07.815Z,102948.36
2019-05-13T15:39:37.915Z,102951.58
2019-05-13T15:42:08.471Z,102945.30
2019-05-13T15:44:38.451Z,102958.28
2019-05-13T15:47:22.404Z,102939.47
2019-05-13T15:49:40.460Z,102933.59
2019-05-13T15:52:11.723Z,102943.62
2019-05-13T15:54:42.940Z,102947.91
2019-05-13T15:57:12.830Z,102945.81
2019-05-13T15:59:43.398Z,102938.19
2019-05-13T16:02:13.828Z,102937.28
2019-05-13T16:05:02.219Z,102932.91
2019-05-13T16:07:31.425Z,102942.64
2019-05-13T16:10:02.078Z,102942.16
2019-05-13T16:12:33.389Z,102938.55
2019-05-13T16:15:04.656Z,102939.67
2019-05-13T16:17:41.149Z,102942.63
2019-05-13T16:20:09.934Z,102934.16
2019-05-13T16:22:41.982Z,102928.17
2019-05-13T16:25:12.153Z,102928.50
2019-05-13T16:27:45.632Z,102932.53
2019-05-13T16:30:15.806Z,102938.33
2019-05-13T16:32:48.087Z,102938.23
2019-05-13T16:35:17.600Z,102942.30
2019-05-13T16:37:47.811Z,102931.52
2019-05-13T16:40:17.800Z,102932.44
2019-05-13T16:42:51.745Z,102935.56
2019-05-13T16:45:21.839Z,102948.63
2019-05-13T16:47:57.298Z,102946.69
2019-05-13T16:50:24.605Z,102940.04
2019-05-13T16:52:54.594Z,102939.91
2019-05-13T16:55:24.896Z,102939.05
2019-05-13T16:57:55.004Z,102936.00
2019-05-13T17:00:25.079Z,102935.81
2019-05-13T17:03:02.268Z,102937.83
2019-05-13T17:05:34.279Z,102939.84
2019-05-13T17:08:04.277Z,102936.24
2019-05-13T17:10:34.265Z,102931.19
2019-05-13T17:13:04.497Z,102942.61
2019-05-13T17:15:35.064Z,102942.59
2019-05-13T17:18:11.669Z,102946.42
2019-05-13T17:20:37.342Z,102939.39
2019-05-13T17:23:07.269Z,102951.70
2019-05-13T17:25:37.675Z,102947.37
2019-05-13T17:28:07.664Z,102948.62
2019-05-13T17:30:37.938Z,102952.78
2019-05-13T17:33:08.024Z,102949.53
2019-05-13T17:35:38.249Z,102951.19
2019-05-13T17:38:08.115Z,102946.48
2019-05-13T17:40:38.176Z,102951.37
2019-05-13T17:43:08.193Z,102943.56
2019-05-13T17:45:38.316Z,102941.95
2019-05-13T17:48:24.810Z,102942.31
2019-05-13T17:50:41.355Z,102943.22
2019-05-13T17:53:11.583Z,102943.59
2019-05-13T17:55:41.415Z,102950.45
2019-05-13T17:58:11.716Z,102941.94
2019-05-13T18:00:41.720Z,102948.05
2019-05-13T18:03:11.569Z,102951.50
2019-05-13T18:05:42.110Z,102950.58
2019-05-13T18:08:12.035Z,102946.22
2019-05-13T18:10:42.093Z,102946.74
2019-05-13T18:13:12.765Z,102947.12
2019-05-13T18:15:42.853Z,102942.41
2019-05-13T18:18:13.035Z,102948.34
2019-05-13T18:20:42.918Z,102944.54
2019-05-13T18:23:12.843Z,102950.42
2019-05-13T18:25:42.896Z,102947.19
2019-05-13T18:28:27.085Z,102944.60
2019-05-13T18:30:44.545Z,102948.02
2019-05-13T18:33:14.698Z,102961.34
2019-05-13T18:35:44.554Z,102957.37
2019-05-13T18:38:14.420Z,102958.56
2019-05-13T18:40:49.768Z,102956.00
2019-05-13T18:43:21.685Z,102962.47
2019-05-13T18:45:52.571Z,102963.88
2019-05-13T18:48:23.011Z,102955.84
2019-05-13T18:50:54.253Z,102965.78
2019-05-13T18:53:24.427Z,102970.80
2019-05-13T18:55:55.361Z,102970.19
2019-05-13T18:58:25.288Z,102972.27
2019-05-13T19:00:56.129Z,102969.13
2019-05-13T19:03:26.182Z,102969.42
2019-05-13T19:05:56.052Z,102970.45
2019-05-13T19:08:25.854Z,102970.73
2019-05-13T19:10:56.233Z,102969.04
2019-05-13T19:13:26.348Z,102974.18
2019-05-13T19:15:56.207Z,102976.30
2019-05-13T19:18:26.101Z,102984.52
2019-05-13T19:20:57.009Z,102986.60
2019-05-13T19:23:27.229Z,102989.97
2019-05-13T19:25:58.533Z,102998.34
2019-05-13T19:28:28.400Z,102999.00
2019-05-13T19:30:58.201Z,103000.00
2019-05-13T19:33:30.848Z,103008.40
2019-05-13T19:36:01.447Z,103003.63
2019-05-13T19:38:32.403Z,103004.81
2019-05-13T19:41:02.560Z,103003.66
2019-05-13T19:43:32.470Z,103001.62
2019-05-13T19:46:02.660Z,103006.40
2019-05-13T19:48:32.946Z,103008.84
2019-05-13T19:51:02.993Z,103008.02
2019-05-13T19:53:32.861Z,103008.47
2019-05-13T19:56:06.730Z,103012.34
2019-05-13T19:58:37.367Z,103009.93
2019-05-13T20:01:11.490Z,103008.58
2019-05-13T20:03:42.260Z,103005.78
2019-05-13T20:06:12.851Z,103005.20
2019-05-13T20:08:42.864Z,103004.57
2019-05-13T20:11:12.927Z,103010.95
2019-05-13T20:13:44.176Z,103010.91
2019-05-13T20:16:14.075Z,103014.77
2019-05-13T20:18:47.157Z,103019.37
2019-05-13T20:21:17.226Z,103020.69
2019-05-13T20:23:47.562Z,103020.72
2019-05-13T20:26:17.468Z,103013.80
2019-05-13T20:28:52.664Z,103018.23
2019-05-13T20:31:23.394Z,103019.78
2019-05-13T20:33:54.965Z,102960.75
2019-05-13T20:36:25.673Z,103023.00
2019-05-13T20:38:56.372Z,103020.23
2019-05-13T20:41:26.306Z,103025.48
2019-05-13T20:43:56.378Z,103015.64
2019-05-13T20:46:26.525Z,103025.63
2019-05-13T20:48:57.543Z,103027.16
2019-05-13T20:51:27.456Z,103025.27
2019-05-13T20:53:57.680Z,103029.31
2019-05-13T20:56:28.644Z,103025.81
2019-05-13T20:58:58.552Z,103032.41
2019-05-13T21:01:29.447Z,103030.30
2019-05-13T21:04:01.655Z,103028.41
2019-05-13T21:06:31.578Z,103030.71
2019-05-13T21:09:01.881Z,103024.16
2019-05-13T21:11:32.672Z,103031.25
2019-05-13T21:14:02.626Z,103039.98
2019-05-13T21:16:32.431Z,103037.39
2019-05-13T21:19:02.198Z,103036.95
2019-05-13T21:21:32.110Z,103031.52
2019-05-13T21:24:02.579Z,103032.36
2019-05-13T21:26:32.585Z,103023.13
2019-05-13T21:29:02.486Z,103032.05
2019-05-13T21:31:32.469Z,103018.88
2019-05-13T21:34:02.808Z,103013.62
2019-05-13T21:36:33.105Z,103021.99
2019-05-13T21:39:05.504Z,103014.46
2019-05-13T21:41:36.836Z,103005.39
2019-05-13T21:44:07.032Z,103018.75
2019-05-13T21:46:37.324Z,103008.98
2019-05-13T21:49:07.257Z,103018.81
2019-05-13T21:51:37.288Z,103024.17
2019-05-13T21:54:07.383Z,103021.45
2019-05-13T21:56:37.370Z,103023.22
2019-05-13T21:59:07.235Z,103030.30
2019-05-13T22:01:37.232Z,103025.53
2019-05-13T22:04:07.151Z,103029.36
2019-05-13T22:06:37.046Z,103022.09
2019-05-13T22:09:11.728Z,103029.06
2019-05-13T22:11:42.065Z,103023.47
2019-05-13T22:14:13.104Z,103011.97
2019-05-13T22:16:43.261Z,103011.97
2019-05-13T22:19:13.132Z,103008.78
2019-05-13T22:21:43.065Z,103005.44
2019-05-13T22:24:12.979Z,103005.44
2019-05-13T22:26:43.062Z,102996.52
2019-05-13T22:32:01.972Z,103000.75
2019-05-13T22:34:32.719Z,103003.64
2019-05-13T22:37:02.922Z,103009.33
2019-05-13T22:39:34.868Z,103002.32
2019-05-13T22:42:04.511Z,103004.20
2019-05-13T22:44:34.378Z,103004.00
2019-05-13T22:47:04.678Z,103007.18
2019-05-13T22:49:34.541Z,103001.12
2019-05-13T22:52:04.762Z,102998.27
2019-05-13T22:54:35.762Z,102996.94
2019-05-13T22:57:05.844Z,103000.63
2019-05-13T22:59:36.321Z,102993.31
2019-05-13T23:02:06.579Z,102991.19
2019-05-13T23:04:36.397Z,102991.03
2019-05-13T23:07:07.372Z,102991.83
2019-05-13T23:09:37.283Z,102999.23
2019-05-13T23:12:07.131Z,102995.13
2019-05-13T23:14:37.049Z,102997.97
2019-05-13T23:17:07.044Z,102988.28
2019-05-13T23:19:36.852Z,102984.23
2019-05-13T23:22:06.956Z,102978.30
2019-05-13T23:24:36.766Z,102969.35
2019-05-13T23:27:06.650Z,102970.06
2019-05-13T23:41:21.765Z,102966.42
2019-05-13T23:43:51.711Z,102964.84
2019-05-13T23:46:22.229Z,102966.80
2019-05-13T23:48:53.377Z,102963.72
2019-05-13T23:51:23.469Z,102962.59
2019-05-13T23:53:53.543Z,102968.31
2019-05-13T23:56:23.499Z,102966.64
2019-05-13T23:58:53.311Z,102964.67
